Druid Hills, Georgia
Current Conditions -  °F | °C
As of 6:53 PM on Friday 21 Nov 2014 (Local Time) from KPDK Reporting Station
Clear Clear  
Wind Chill: 47°   Ceiling: Unl
Heat Index: 47°   Visibility: 10mi
Dew Point: 33°   Wind: 0mph
Humidity: 59%   Direction: NA
Pressure: 30.37"   Gusts: NA
Location:  33.7788°N, 84.3361°W
Report Text: KPDK 212353Z 00000KT 10SM CLR 08/01 A3037 RMK AO2 SLP298 T00830006 10172 20083 53010
Loading
Personal Weather Stations






























Interactive Weather Map New forecast layout! Learn more

10-Day Weather Forecast

Advertisements
Track Severe Weather on mobile